createdAt,value
2018-08-18T00:00:55.680Z,20.01
2018-08-18T00:01:55.719Z,19.99
2018-08-18T00:02:55.761Z,20.03
2018-08-18T00:03:55.800Z,19.98
2018-08-18T00:04:55.886Z,19.94
2018-08-18T00:05:55.878Z,19.96
2018-08-18T00:06:55.920Z,19.92
2018-08-18T00:07:55.962Z,19.92
2018-08-18T00:08:56.001Z,19.94
2018-08-18T00:09:56.042Z,19.83
2018-08-18T00:10:56.083Z,19.81
2018-08-18T00:11:56.128Z,19.83
2018-08-18T00:12:56.161Z,19.80
2018-08-18T00:13:56.201Z,19.77
2018-08-18T00:14:56.241Z,19.80
2018-08-18T00:15:56.281Z,19.81
2018-08-18T00:16:56.323Z,19.83
2018-08-18T00:17:56.363Z,19.81
2018-08-18T00:18:56.405Z,19.81
2018-08-18T00:19:56.452Z,19.78
2018-08-18T00:20:56.494Z,19.78
2018-08-18T00:21:56.525Z,19.86
2018-08-18T00:22:56.565Z,19.83
2018-08-18T00:23:56.607Z,19.83
2018-08-18T00:24:56.644Z,19.92
2018-08-18T00:25:56.689Z,19.96
2018-08-18T00:26:56.726Z,19.91
2018-08-18T00:27:56.765Z,19.92
2018-08-18T00:28:56.805Z,19.91
2018-08-18T00:29:56.847Z,19.96
2018-08-18T00:30:56.888Z,19.96
2018-08-18T00:31:56.930Z,19.95
2018-08-18T00:32:56.966Z,19.92
2018-08-18T00:33:57.009Z,19.95
2018-08-18T00:34:57.050Z,19.92
2018-08-18T00:35:57.087Z,19.99
2018-08-18T00:36:57.129Z,19.92
2018-08-18T00:37:57.170Z,20.02
2018-08-18T00:38:57.212Z,19.95
2018-08-18T00:39:57.250Z,19.91
2018-08-18T00:40:57.293Z,19.92
2018-08-18T00:41:57.330Z,19.88
2018-08-18T00:42:57.370Z,19.92
2018-08-18T00:43:57.419Z,19.87
2018-08-18T00:44:57.450Z,19.92
2018-08-18T00:45:57.490Z,19.87
2018-08-18T00:46:57.531Z,19.92
2018-08-18T00:47:57.572Z,19.83
2018-08-18T00:48:57.611Z,19.80
2018-08-18T00:49:57.652Z,19.86
2018-08-18T00:50:57.696Z,19.88
2018-08-18T00:51:57.732Z,19.81
2018-08-18T00:52:57.772Z,19.86
2018-08-18T00:53:57.813Z,19.80
2018-08-18T00:54:57.853Z,19.88
2018-08-18T00:55:57.893Z,19.78
2018-08-18T00:56:57.936Z,19.87
2018-08-18T00:57:57.975Z,19.81
2018-08-18T00:58:58.022Z,19.87
2018-08-18T00:59:58.056Z,19.73
2018-08-18T01:00:58.093Z,19.74
2018-08-18T01:01:58.135Z,19.80
2018-08-18T01:02:58.175Z,19.76
2018-08-18T01:03:58.368Z,19.76
2018-08-18T01:04:58.256Z,19.65
2018-08-18T01:05:58.316Z,19.74
2018-08-18T01:06:58.345Z,19.65
2018-08-18T01:07:58.376Z,19.69
2018-08-18T01:08:58.417Z,19.62
2018-08-18T01:09:58.458Z,19.56
2018-08-18T01:10:58.624Z,19.55
2018-08-18T01:11:58.662Z,19.56
2018-08-18T01:12:58.674Z,19.51
2018-08-18T01:13:58.682Z,19.47
2018-08-18T01:14:58.786Z,19.47
2018-08-18T01:15:58.698Z,19.48
2018-08-18T01:16:58.738Z,19.41
2018-08-18T01:17:58.780Z,19.39
2018-08-18T01:18:58.820Z,19.47
2018-08-18T01:19:58.860Z,19.44
2018-08-18T01:20:58.897Z,19.41
2018-08-18T01:21:58.941Z,19.56
2018-08-18T01:22:58.981Z,19.48
2018-08-18T01:23:59.020Z,19.39
2018-08-18T01:24:59.059Z,19.50
2018-08-18T01:25:59.100Z,19.40
2018-08-18T01:26:59.239Z,19.48
2018-08-18T01:27:59.181Z,19.37
2018-08-18T01:28:59.221Z,19.39
2018-08-18T01:29:59.261Z,19.47
2018-08-18T01:30:59.302Z,19.46
2018-08-18T01:31:59.341Z,19.50
2018-08-18T01:32:59.382Z,19.47
2018-08-18T01:33:59.421Z,19.55
2018-08-18T01:34:59.465Z,19.47
2018-08-18T01:35:59.501Z,19.54
2018-08-18T01:36:59.550Z,19.47
2018-08-18T01:37:59.584Z,19.51
2018-08-18T01:38:59.634Z,19.47
2018-08-18T01:39:59.662Z,19.44
2018-08-18T01:40:59.704Z,19.48
2018-08-18T01:41:59.742Z,19.46
2018-08-18T01:42:59.783Z,19.50
2018-08-18T01:43:59.823Z,19.48
2018-08-18T01:44:59.861Z,19.47
2018-08-18T01:45:59.905Z,19.50
2018-08-18T01:46:59.941Z,19.46
2018-08-18T01:47:59.982Z,19.50
2018-08-18T01:49:00.021Z,19.56
2018-08-18T01:50:00.065Z,19.47
2018-08-18T01:51:00.202Z,19.56
2018-08-18T01:52:00.149Z,19.58
2018-08-18T01:53:00.184Z,19.58
2018-08-18T01:54:00.222Z,19.50
2018-08-18T01:55:00.263Z,19.56
2018-08-18T01:56:00.304Z,19.51
2018-08-18T01:57:00.342Z,19.48
2018-08-18T01:58:00.440Z,19.48
2018-08-18T01:59:00.423Z,19.50
2018-08-18T02:00:00.463Z,19.48
2018-08-18T02:01:00.504Z,19.50
2018-08-18T02:02:00.546Z,19.51
2018-08-18T02:03:00.592Z,19.47
2018-08-18T02:04:00.632Z,19.46
2018-08-18T02:05:00.665Z,19.44
2018-08-18T02:06:00.704Z,19.50
2018-08-18T02:07:00.747Z,19.37
2018-08-18T02:08:00.784Z,19.39
2018-08-18T02:09:00.822Z,19.40
2018-08-18T02:10:00.863Z,19.40
2018-08-18T02:11:00.904Z,19.41
2018-08-18T02:12:00.944Z,19.37
2018-08-18T02:13:00.984Z,19.21
2018-08-18T02:14:01.023Z,19.26
2018-08-18T02:15:01.063Z,19.16
2018-08-18T02:16:01.104Z,19.14
2018-08-18T02:17:01.143Z,19.16
2018-08-18T02:18:01.185Z,19.21
2018-08-18T02:19:01.224Z,19.07
2018-08-18T02:20:01.473Z,19.10
2018-08-18T02:21:01.302Z,18.91
2018-08-18T02:22:01.343Z,18.99
2018-08-18T02:23:01.385Z,18.91
2018-08-18T02:24:01.423Z,18.85
2018-08-18T02:25:01.461Z,18.81
2018-08-18T02:26:01.502Z,18.85
2018-08-18T02:27:01.656Z,18.72
2018-08-18T02:28:01.583Z,18.67
2018-08-18T02:29:01.623Z,18.58
2018-08-18T02:30:01.662Z,18.52
2018-08-18T02:31:01.702Z,18.52
2018-08-18T02:32:01.744Z,18.50
2018-08-18T02:33:01.785Z,18.45
2018-08-18T02:34:01.828Z,18.45
2018-08-18T02:35:01.863Z,18.42
2018-08-18T02:36:01.905Z,18.45
2018-08-18T02:37:01.940Z,18.37
2018-08-18T02:38:01.982Z,18.30
2018-08-18T02:39:02.024Z,18.18
2018-08-18T02:40:02.114Z,18.20
2018-08-18T02:41:02.114Z,18.12
2018-08-18T02:42:02.147Z,18.14
2018-08-18T02:43:02.184Z,18.02
2018-08-18T02:44:02.282Z,17.96
2018-08-18T02:45:02.260Z,17.95
2018-08-18T02:46:02.299Z,17.93
2018-08-18T02:47:02.339Z,17.97
2018-08-18T02:48:02.380Z,17.99
2018-08-18T02:49:02.673Z,18.00
2018-08-18T02:50:02.459Z,18.14
2018-08-18T02:51:02.498Z,18.15
2018-08-18T02:52:02.541Z,18.14
2018-08-18T02:53:02.593Z,18.20
2018-08-18T02:54:02.616Z,18.25
2018-08-18T02:55:02.658Z,18.23
2018-08-18T02:56:02.697Z,18.30
2018-08-18T02:57:02.737Z,18.26
2018-08-18T02:58:02.780Z,18.30
2018-08-18T02:59:02.815Z,18.23
2018-08-18T03:00:02.859Z,18.23
2018-08-18T03:01:02.894Z,18.23
2018-08-18T03:02:02.935Z,18.30
2018-08-18T03:03:02.974Z,18.33
2018-08-18T03:04:03.016Z,18.23
2018-08-18T03:05:03.053Z,18.25
2018-08-18T03:06:03.094Z,18.29
2018-08-18T03:07:03.138Z,18.14
2018-08-18T03:08:03.175Z,18.15
2018-08-18T03:09:03.222Z,18.30
2018-08-18T03:10:03.251Z,18.20
2018-08-18T03:11:03.291Z,18.20
2018-08-18T03:12:03.330Z,18.23
2018-08-18T03:13:03.370Z,18.18
2018-08-18T03:14:03.411Z,18.18
2018-08-18T03:15:03.450Z,18.14
2018-08-18T03:16:03.499Z,18.11
2018-08-18T03:17:03.527Z,18.18
2018-08-18T03:18:03.568Z,18.05
2018-08-18T03:19:03.609Z,18.18
2018-08-18T03:20:03.647Z,18.11
2018-08-18T03:21:03.691Z,18.17
2018-08-18T03:22:03.727Z,18.17
2018-08-18T03:23:03.767Z,18.14
2018-08-18T03:24:03.806Z,18.20
2018-08-18T03:25:03.849Z,18.15
2018-08-18T03:26:03.885Z,18.14
2018-08-18T03:27:03.931Z,18.18
2018-08-18T03:28:03.966Z,18.17
2018-08-18T03:29:04.025Z,18.18
2018-08-18T03:30:04.044Z,18.18
2018-08-18T03:31:04.098Z,18.30
2018-08-18T03:32:04.126Z,18.30
2018-08-18T03:33:04.164Z,18.26
2018-08-18T03:34:04.250Z,18.26
2018-08-18T03:35:04.250Z,18.30
2018-08-18T03:36:04.286Z,18.26
2018-08-18T03:37:04.321Z,18.26
2018-08-18T03:38:04.363Z,18.27
2018-08-18T03:39:04.401Z,18.29
2018-08-18T03:40:04.445Z,18.30
2018-08-18T03:41:04.479Z,18.27
2018-08-18T03:42:04.524Z,18.26
2018-08-18T03:43:04.559Z,18.27
2018-08-18T03:44:04.607Z,18.23
2018-08-18T03:45:04.637Z,18.23
2018-08-18T03:46:04.679Z,18.12
2018-08-18T03:47:04.719Z,18.12
2018-08-18T03:48:04.758Z,18.11
2018-08-18T03:49:04.797Z,18.00
2018-08-18T03:50:04.839Z,17.97
2018-08-18T03:51:04.877Z,17.95
2018-08-18T03:52:04.916Z,17.89
2018-08-18T03:53:05.006Z,17.92
2018-08-18T03:54:04.996Z,17.93
2018-08-18T03:55:05.042Z,17.86
2018-08-18T03:56:05.074Z,17.84
2018-08-18T03:57:05.114Z,17.86
2018-08-18T03:58:05.156Z,17.82
2018-08-18T03:59:05.194Z,17.86
2018-08-18T04:00:05.236Z,17.89
2018-08-18T04:01:05.274Z,17.82
2018-08-18T04:02:05.346Z,17.82
2018-08-18T04:03:05.353Z,17.89
2018-08-18T04:04:05.394Z,17.86
2018-08-18T04:05:05.432Z,17.82
2018-08-18T04:06:05.472Z,17.89
2018-08-18T04:07:05.512Z,17.87
2018-08-18T04:08:05.552Z,17.93
2018-08-18T04:09:05.604Z,18.00
2018-08-18T04:10:05.632Z,17.92
2018-08-18T04:11:05.670Z,17.96
2018-08-18T04:12:05.709Z,17.89
2018-08-18T04:13:05.750Z,17.95
2018-08-18T04:14:05.790Z,17.93
2018-08-18T04:15:05.828Z,18.05
2018-08-18T04:16:05.883Z,17.97
2018-08-18T04:17:05.910Z,17.99
2018-08-18T04:18:05.947Z,17.97
2018-08-18T04:19:05.988Z,18.03
2018-08-18T04:20:06.027Z,18.03
2018-08-18T04:21:06.067Z,17.99
2018-08-18T04:22:06.106Z,17.96
2018-08-18T04:23:06.147Z,18.11
2018-08-18T04:24:06.186Z,17.90
2018-08-18T04:25:06.276Z,17.93
2018-08-18T04:26:06.264Z,17.96
2018-08-18T04:27:06.306Z,17.93
2018-08-18T04:28:06.354Z,17.90
2018-08-18T04:29:06.385Z,17.95
2018-08-18T04:30:06.423Z,17.87
2018-08-18T04:31:06.463Z,17.90
2018-08-18T04:32:06.501Z,17.89
2018-08-18T04:33:06.547Z,17.89
2018-08-18T04:34:06.581Z,17.95
2018-08-18T04:35:06.631Z,17.96
2018-08-18T04:36:06.661Z,17.97
2018-08-18T04:37:06.700Z,17.90
2018-08-18T04:38:06.741Z,17.99
2018-08-18T04:39:06.779Z,17.99
2018-08-18T04:40:06.820Z,17.99
2018-08-18T04:41:06.862Z,18.00
2018-08-18T04:42:06.897Z,18.07
2018-08-18T04:43:06.937Z,18.15
2018-08-18T04:44:06.990Z,18.15
2018-08-18T04:45:07.016Z,18.15
2018-08-18T04:46:07.058Z,18.15
2018-08-18T04:47:07.097Z,18.26
2018-08-18T04:48:07.137Z,18.21
2018-08-18T04:49:07.177Z,18.29
2018-08-18T04:50:07.232Z,18.29
2018-08-18T04:51:07.256Z,18.35
2018-08-18T04:52:07.297Z,18.36
2018-08-18T04:53:07.334Z,18.41
2018-08-18T04:54:07.375Z,18.36
2018-08-18T04:55:07.414Z,18.42
2018-08-18T04:56:07.456Z,18.42
2018-08-18T04:57:07.495Z,18.41
2018-08-18T04:58:07.534Z,18.51
2018-08-18T04:59:07.574Z,18.48
2018-08-18T05:00:07.630Z,18.51
2018-08-18T05:01:07.653Z,18.52
2018-08-18T05:02:07.692Z,18.55
2018-08-18T05:03:07.732Z,18.62
2018-08-18T05:04:07.774Z,18.57
2018-08-18T05:05:07.874Z,18.67
2018-08-18T05:06:07.854Z,18.75
2018-08-18T05:07:07.901Z,18.69
2018-08-18T05:08:07.932Z,18.75
2018-08-18T05:09:07.972Z,18.84
2018-08-18T05:10:08.020Z,18.85
2018-08-18T05:11:08.055Z,18.90
2018-08-18T05:12:08.098Z,18.92
2018-08-18T05:13:08.129Z,18.92
2018-08-18T05:14:08.173Z,19.10
2018-08-18T05:15:08.211Z,18.99
2018-08-18T05:16:08.260Z,19.04
2018-08-18T05:17:08.295Z,19.18
2018-08-18T05:18:08.330Z,19.23
2018-08-18T05:19:08.399Z,19.16
2018-08-18T05:20:08.410Z,19.19
2018-08-18T05:21:08.450Z,19.18
2018-08-18T05:22:08.489Z,19.13
2018-08-18T05:23:08.536Z,19.14
2018-08-18T05:24:08.572Z,19.21
2018-08-18T05:25:08.620Z,19.18
2018-08-18T05:26:08.649Z,19.13
2018-08-18T05:27:08.690Z,19.21
2018-08-18T05:28:08.730Z,19.23
2018-08-18T05:29:08.772Z,19.23
2018-08-18T05:30:08.810Z,19.21
2018-08-18T05:31:08.853Z,19.25
2018-08-18T05:32:08.889Z,19.25
2018-08-18T05:33:08.931Z,19.31
2018-08-18T05:34:08.970Z,19.43
2018-08-18T05:35:09.011Z,19.46
2018-08-18T05:36:09.049Z,19.39
2018-08-18T05:37:09.091Z,19.37
2018-08-18T05:38:09.134Z,19.44
2018-08-18T05:39:09.183Z,19.55
2018-08-18T05:40:09.209Z,19.56
2018-08-18T05:41:09.255Z,19.56
2018-08-18T05:42:09.290Z,19.63
2018-08-18T05:43:09.329Z,19.69
2018-08-18T05:44:09.375Z,19.68
2018-08-18T05:45:09.409Z,19.71
2018-08-18T05:46:09.449Z,19.62
2018-08-18T05:47:09.498Z,19.77
2018-08-18T05:48:09.531Z,19.78
2018-08-18T05:49:09.568Z,19.77
2018-08-18T05:50:09.620Z,19.80
2018-08-18T05:51:09.652Z,19.71
2018-08-18T05:52:09.691Z,19.81
2018-08-18T05:53:09.733Z,19.86
2018-08-18T05:54:09.770Z,19.88
2018-08-18T05:55:09.810Z,19.94
2018-08-18T05:56:09.852Z,19.91
2018-08-18T05:57:09.890Z,19.98
2018-08-18T05:58:09.931Z,19.95
2018-08-18T05:59:09.990Z,20.02
2018-08-18T06:00:10.016Z,20.08
2018-08-18T06:01:10.052Z,20.13
2018-08-18T06:02:10.103Z,20.24
2018-08-18T06:03:10.135Z,20.18
2018-08-18T06:04:10.176Z,20.13
2018-08-18T06:05:10.236Z,20.23
2018-08-18T06:06:10.257Z,20.13
2018-08-18T06:07:10.295Z,20.23
2018-08-18T06:08:10.334Z,20.13
2018-08-18T06:09:10.379Z,20.11
2018-08-18T06:10:10.415Z,20.17
2018-08-18T06:11:10.456Z,20.26
2018-08-18T06:12:10.533Z,20.23
2018-08-18T06:13:10.538Z,20.28
2018-08-18T06:14:10.589Z,20.24
2018-08-18T06:15:10.618Z,20.26
2018-08-18T06:16:10.667Z,20.38
2018-08-18T06:17:10.697Z,20.41
2018-08-18T06:18:10.740Z,20.43
2018-08-18T06:19:10.780Z,20.51
2018-08-18T06:20:10.821Z,20.54
2018-08-18T06:21:10.868Z,20.59
2018-08-18T06:22:10.899Z,20.64
2018-08-18T06:23:10.939Z,20.64
2018-08-18T06:24:10.981Z,20.74
2018-08-18T06:25:11.027Z,20.80
2018-08-18T06:26:11.062Z,20.72
2018-08-18T06:27:11.101Z,20.84
2018-08-18T06:28:11.144Z,20.87
2018-08-18T06:29:11.182Z,20.88
2018-08-18T06:30:11.223Z,20.89
2018-08-18T06:31:11.271Z,20.85
2018-08-18T06:32:11.307Z,20.77
2018-08-18T06:33:11.352Z,20.92
2018-08-18T06:34:11.388Z,20.85
2018-08-18T06:35:11.428Z,20.92
2018-08-18T06:36:11.468Z,20.87
2018-08-18T06:37:11.508Z,20.92
2018-08-18T06:38:11.549Z,20.92
2018-08-18T06:39:11.590Z,20.94
2018-08-18T06:40:11.629Z,20.92
2018-08-18T06:41:11.821Z,20.92
2018-08-18T06:42:11.711Z,20.99
2018-08-18T06:43:11.759Z,21.12
2018-08-18T06:44:11.793Z,21.14
2018-08-18T06:45:11.831Z,21.19
2018-08-18T06:46:11.874Z,21.28
2018-08-18T06:47:11.914Z,21.42
2018-08-18T06:48:11.955Z,21.42
2018-08-18T06:49:11.995Z,21.56
2018-08-18T06:50:12.036Z,21.56
2018-08-18T06:51:12.077Z,21.52
2018-08-18T06:52:12.119Z,21.62
2018-08-18T06:53:12.159Z,21.71
2018-08-18T06:54:12.198Z,21.88
2018-08-18T06:55:12.396Z,21.86
2018-08-18T06:56:12.282Z,21.94
2018-08-18T06:57:12.323Z,21.90
2018-08-18T06:58:12.364Z,21.99
2018-08-18T06:59:12.408Z,22.06
2018-08-18T07:00:12.464Z,22.12
2018-08-18T07:01:12.487Z,22.18
2018-08-18T07:02:12.528Z,22.20
2018-08-18T07:03:12.568Z,22.27
2018-08-18T07:04:12.615Z,22.28
2018-08-18T07:05:12.652Z,22.33
2018-08-18T07:06:12.698Z,22.45
2018-08-18T07:07:12.744Z,22.52
2018-08-18T07:08:12.785Z,22.43
2018-08-18T07:09:12.816Z,22.55
2018-08-18T07:10:12.860Z,22.47
2018-08-18T07:11:12.899Z,22.51
2018-08-18T07:12:12.941Z,22.70
2018-08-18T07:13:12.984Z,22.79
2018-08-18T07:14:13.032Z,22.90
2018-08-18T07:15:13.064Z,22.94
2018-08-18T07:16:13.111Z,23.05
2018-08-18T07:17:13.148Z,23.10
2018-08-18T07:18:13.189Z,23.02
2018-08-18T07:19:13.244Z,23.01
2018-08-18T07:20:13.316Z,22.91
2018-08-18T07:21:13.315Z,22.98
2018-08-18T07:22:13.359Z,23.02
2018-08-18T07:23:13.398Z,23.02
2018-08-18T07:24:13.450Z,22.95
2018-08-18T07:25:13.483Z,23.10
2018-08-18T07:26:13.526Z,23.16
2018-08-18T07:27:13.567Z,23.01
2018-08-18T07:28:13.643Z,23.10
2018-08-18T07:29:13.752Z,23.05
2018-08-18T07:30:13.691Z,22.94
2018-08-18T07:31:13.737Z,22.90
2018-08-18T07:32:13.777Z,22.86
2018-08-18T07:33:13.815Z,22.91
2018-08-18T07:34:13.865Z,22.88
2018-08-18T07:35:13.906Z,22.75
2018-08-18T07:36:13.946Z,22.68
2018-08-18T07:37:14.165Z,22.85
2018-08-18T07:38:14.026Z,22.82
2018-08-18T07:39:14.071Z,22.73
2018-08-18T07:40:14.113Z,22.77
2018-08-18T07:41:14.152Z,22.76
2018-08-18T07:42:14.196Z,22.79
2018-08-18T07:43:14.237Z,22.97
2018-08-18T07:44:14.280Z,23.00
2018-08-18T07:45:14.322Z,22.95
2018-08-18T07:46:14.397Z,22.92
2018-08-18T07:47:14.410Z,23.12
2018-08-18T07:48:14.448Z,23.17
2018-08-18T07:49:14.490Z,23.17
2018-08-18T07:50:14.535Z,23.22
2018-08-18T07:51:14.575Z,23.12
2018-08-18T07:52:14.625Z,23.19
2018-08-18T07:53:14.768Z,23.31
2018-08-18T07:54:14.700Z,23.23
2018-08-18T07:55:14.742Z,23.15
2018-08-18T07:56:14.816Z,23.19
2018-08-18T07:57:14.853Z,23.19
2018-08-18T07:58:14.869Z,23.25
2018-08-18T07:59:14.912Z,23.17
2018-08-18T08:00:14.953Z,23.07
2018-08-18T08:01:14.996Z,22.92
2018-08-18T08:02:15.041Z,22.85
2018-08-18T08:03:15.080Z,22.65
2018-08-18T08:04:15.129Z,22.72
2018-08-18T08:05:15.167Z,22.68
2018-08-18T08:06:15.206Z,22.60
2018-08-18T08:07:15.264Z,22.70
2018-08-18T08:08:15.288Z,22.64
2018-08-18T08:09:15.332Z,22.67
2018-08-18T08:10:15.373Z,22.65
2018-08-18T08:11:15.416Z,22.79
2018-08-18T08:12:15.457Z,22.82
2018-08-18T08:13:15.502Z,22.91
2018-08-18T08:14:15.542Z,22.97
2018-08-18T08:15:15.588Z,22.86
2018-08-18T08:16:15.640Z,22.92
2018-08-18T08:17:15.671Z,23.02
2018-08-18T08:18:15.769Z,22.92
2018-08-18T08:19:15.757Z,23.07
2018-08-18T08:20:15.812Z,23.09
2018-08-18T08:21:15.840Z,23.22
2018-08-18T08:22:15.884Z,23.07
2018-08-18T08:23:15.917Z,23.04
2018-08-18T08:24:15.961Z,23.22
2018-08-18T08:25:16.010Z,23.19
2018-08-18T08:26:16.053Z,23.23
2018-08-18T08:27:16.096Z,23.13
2018-08-18T08:28:16.149Z,23.07
2018-08-18T08:29:16.225Z,23.09
2018-08-18T08:30:16.215Z,23.05
2018-08-18T08:31:16.256Z,23.22
2018-08-18T08:32:16.296Z,23.16
2018-08-18T08:33:16.342Z,23.05
2018-08-18T08:34:16.388Z,23.15
2018-08-18T08:35:16.423Z,23.15
2018-08-18T08:36:16.465Z,23.19
2018-08-18T08:37:16.506Z,23.17
2018-08-18T08:38:16.549Z,23.31
2018-08-18T08:39:16.589Z,23.27
2018-08-18T08:40:16.635Z,23.20
2018-08-18T08:41:16.673Z,23.25
2018-08-18T08:42:16.717Z,23.25
2018-08-18T08:43:16.817Z,23.36
2018-08-18T08:44:16.804Z,23.25
2018-08-18T08:45:16.840Z,23.39
2018-08-18T08:46:16.885Z,23.39
2018-08-18T08:47:16.934Z,23.46
2018-08-18T08:48:16.967Z,23.42
2018-08-18T08:49:17.009Z,23.55
2018-08-18T08:50:17.051Z,23.58
2018-08-18T08:51:17.100Z,23.63
2018-08-18T08:52:17.137Z,23.63
2018-08-18T08:53:17.187Z,23.79
2018-08-18T08:54:17.219Z,23.84
2018-08-18T08:55:17.262Z,23.87
2018-08-18T08:56:17.305Z,23.87
2018-08-18T08:57:17.348Z,23.91
2018-08-18T08:58:17.389Z,24.09
2018-08-18T08:59:17.431Z,24.12
2018-08-18T09:00:17.483Z,24.22
2018-08-18T09:01:17.514Z,24.31
2018-08-18T09:02:17.558Z,24.34
2018-08-18T09:03:17.600Z,24.52
2018-08-18T09:04:17.642Z,24.60
2018-08-18T09:05:17.685Z,24.61
2018-08-18T09:06:17.732Z,24.49
2018-08-18T09:07:17.769Z,24.53
2018-08-18T09:08:17.811Z,24.49
2018-08-18T09:09:17.852Z,24.43
2018-08-18T09:10:17.924Z,24.43
2018-08-18T09:11:17.937Z,24.39
2018-08-18T09:12:17.983Z,24.45
2018-08-18T09:13:18.025Z,24.43
2018-08-18T09:14:18.067Z,24.30
2018-08-18T09:15:18.109Z,24.27
2018-08-18T09:16:18.153Z,24.35
2018-08-18T09:17:18.203Z,24.28
2018-08-18T09:18:18.241Z,24.49
2018-08-18T09:19:18.279Z,24.52
2018-08-18T09:20:18.322Z,24.58
2018-08-18T09:21:18.473Z,24.65
2018-08-18T09:22:18.408Z,24.84
2018-08-18T09:23:18.451Z,24.67
2018-08-18T09:24:18.495Z,24.69
2018-08-18T09:25:18.541Z,24.76
2018-08-18T09:26:18.592Z,24.81
2018-08-18T09:27:18.623Z,24.90
2018-08-18T09:28:18.665Z,24.96
2018-08-18T09:29:18.716Z,25.02
2018-08-18T09:30:18.756Z,25.06
2018-08-18T09:31:18.793Z,25.03
2018-08-18T09:32:18.836Z,25.23
2018-08-18T09:33:18.893Z,25.24
2018-08-18T09:34:18.919Z,25.30
2018-08-18T09:35:18.963Z,25.20
2018-08-18T09:36:19.102Z,25.24
2018-08-18T09:37:19.206Z,25.28
2018-08-18T09:38:19.092Z,25.23
2018-08-18T09:39:19.142Z,25.45
2018-08-18T09:40:19.177Z,25.24
2018-08-18T09:41:19.219Z,25.25
2018-08-18T09:42:19.270Z,25.20
2018-08-18T09:43:19.307Z,25.06
2018-08-18T09:44:19.356Z,25.09
2018-08-18T09:45:19.451Z,25.09
2018-08-18T09:46:19.473Z,25.06
2018-08-18T09:47:19.478Z,24.95
2018-08-18T09:48:19.521Z,25.09
2018-08-18T09:49:19.563Z,24.96
2018-08-18T09:50:19.606Z,24.84
2018-08-18T09:51:19.650Z,24.84
2018-08-18T09:52:19.690Z,24.87
2018-08-18T09:53:19.740Z,24.95
2018-08-18T09:54:19.784Z,24.93
2018-08-18T09:55:19.823Z,24.84
2018-08-18T09:56:19.875Z,24.80
2018-08-18T09:57:19.920Z,24.90
2018-08-18T09:58:19.951Z,24.87
2018-08-18T09:59:20.166Z,24.91
2018-08-18T10:00:20.039Z,24.90
2018-08-18T10:01:20.093Z,25.00
2018-08-18T10:02:20.124Z,25.05
2018-08-18T10:03:20.170Z,24.90
2018-08-18T10:04:20.210Z,24.96
2018-08-18T10:05:20.251Z,24.99
2018-08-18T10:06:20.323Z,25.13
2018-08-18T10:07:20.338Z,25.05
2018-08-18T10:08:20.381Z,25.00
2018-08-18T10:09:20.437Z,24.96
2018-08-18T10:10:20.475Z,24.95
2018-08-18T10:11:20.518Z,24.87
2018-08-18T10:12:20.554Z,24.88
2018-08-18T10:13:20.601Z,24.87
2018-08-18T10:14:20.637Z,24.98
2018-08-18T10:15:20.729Z,24.84
2018-08-18T10:16:20.723Z,24.87
2018-08-18T10:17:20.765Z,24.96
2018-08-18T10:18:20.815Z,24.83
2018-08-18T10:19:20.861Z,24.84
2018-08-18T10:20:20.929Z,24.85
2018-08-18T10:21:20.948Z,24.77
2018-08-18T10:22:20.983Z,24.77
2018-08-18T10:23:21.024Z,24.76
2018-08-18T10:24:21.221Z,24.90
2018-08-18T10:25:21.113Z,24.95
2018-08-18T10:26:21.152Z,24.91
2018-08-18T10:27:21.266Z,24.96
2018-08-18T10:28:21.238Z,24.96
2018-08-18T10:29:21.284Z,24.99
2018-08-18T10:30:21.323Z,24.99
2018-08-18T10:31:21.371Z,25.13
2018-08-18T10:32:21.409Z,25.00
2018-08-18T10:33:21.592Z,25.03
2018-08-18T10:34:21.501Z,25.15
2018-08-18T10:35:21.544Z,25.10
2018-08-18T10:36:21.579Z,25.14
2018-08-18T10:37:21.623Z,25.21
2018-08-18T10:38:21.666Z,25.28
2018-08-18T10:39:21.710Z,25.32
2018-08-18T10:40:21.753Z,25.32
2018-08-18T10:41:21.792Z,25.27
2018-08-18T10:42:21.837Z,25.36
2018-08-18T10:43:21.886Z,25.30
2018-08-18T10:44:21.931Z,25.46
2018-08-18T10:45:21.967Z,25.51
2018-08-18T10:46:22.008Z,25.55
2018-08-18T10:47:22.052Z,25.47
2018-08-18T10:48:22.096Z,25.43
2018-08-18T10:49:22.137Z,25.43
2018-08-18T10:50:22.180Z,25.28
2018-08-18T10:51:22.225Z,25.32
2018-08-18T10:52:22.266Z,25.25
2018-08-18T10:53:22.311Z,25.36
2018-08-18T10:54:22.353Z,25.36
2018-08-18T10:55:22.405Z,25.42
2018-08-18T10:56:22.457Z,25.36
2018-08-18T10:57:22.480Z,25.47
2018-08-18T10:58:22.526Z,25.50
2018-08-18T10:59:22.566Z,25.50
2018-08-18T11:00:22.609Z,25.60
2018-08-18T11:01:22.650Z,25.69
2018-08-18T11:02:22.697Z,25.65
2018-08-18T11:03:22.739Z,25.72
2018-08-18T11:04:22.782Z,25.70
2018-08-18T11:05:22.827Z,25.73
2018-08-18T11:06:22.866Z,25.83
2018-08-18T11:07:22.914Z,25.88
2018-08-18T11:08:22.960Z,25.85
2018-08-18T11:09:22.997Z,25.95
2018-08-18T11:10:23.040Z,25.94
2018-08-18T11:11:23.180Z,25.95
2018-08-18T11:12:23.126Z,25.95
2018-08-18T11:13:23.168Z,25.97
2018-08-18T11:14:23.212Z,25.95
2018-08-18T11:15:23.258Z,25.88
2018-08-18T11:16:23.299Z,25.98
2018-08-18T11:17:23.343Z,25.88
2018-08-18T11:18:23.385Z,25.87
2018-08-18T11:19:23.430Z,25.88
2018-08-18T11:20:23.473Z,25.91
2018-08-18T11:21:23.514Z,25.83
2018-08-18T11:22:23.564Z,25.87
2018-08-18T11:23:23.609Z,25.92
2018-08-18T11:24:23.645Z,25.85
2018-08-18T11:25:23.687Z,25.87
2018-08-18T11:26:23.729Z,25.88
2018-08-18T11:27:23.776Z,25.91
2018-08-18T11:28:23.847Z,26.05
2018-08-18T11:29:23.862Z,25.95
2018-08-18T11:30:23.911Z,26.05
2018-08-18T11:31:23.956Z,26.05
2018-08-18T11:32:23.989Z,26.06
2018-08-18T11:33:24.031Z,26.01
2018-08-18T11:34:24.076Z,25.97
2018-08-18T11:35:24.120Z,26.06
2018-08-18T11:36:24.168Z,26.05
2018-08-18T11:37:24.210Z,25.97
2018-08-18T11:38:24.250Z,25.92
2018-08-18T11:39:24.293Z,25.82
2018-08-18T11:40:24.343Z,25.80
2018-08-18T11:41:24.433Z,25.85
2018-08-18T11:42:24.421Z,25.92
2018-08-18T11:43:24.466Z,25.91
2018-08-18T11:44:24.510Z,25.91
2018-08-18T11:45:24.552Z,25.98
2018-08-18T11:46:24.601Z,26.12
2018-08-18T11:47:24.642Z,26.13
2018-08-18T11:48:24.683Z,26.40
2018-08-18T11:49:24.724Z,26.36
2018-08-18T11:50:24.770Z,26.45
2018-08-18T11:51:24.812Z,26.40
2018-08-18T11:52:24.858Z,26.40
2018-08-18T11:53:24.896Z,26.37
2018-08-18T11:54:24.963Z,26.43
2018-08-18T11:55:24.987Z,26.44
2018-08-18T11:56:25.026Z,26.48
2018-08-18T11:57:25.070Z,26.48
2018-08-18T11:58:25.115Z,26.50
2018-08-18T11:59:25.178Z,26.50
2018-08-18T12:00:25.200Z,26.39
2018-08-18T12:01:25.248Z,26.35
2018-08-18T12:02:25.288Z,26.43
2018-08-18T12:03:25.331Z,26.39
2018-08-18T12:04:25.374Z,26.43
2018-08-18T12:05:25.417Z,26.39
2018-08-18T12:06:25.461Z,26.36
2018-08-18T12:07:25.512Z,26.45
2018-08-18T12:08:25.556Z,26.40
2018-08-18T12:09:25.595Z,26.45
2018-08-18T12:10:25.701Z,26.51
2018-08-18T12:11:25.677Z,26.60
2018-08-18T12:12:25.728Z,26.70
2018-08-18T12:13:25.972Z,26.80
2018-08-18T12:14:25.805Z,26.82
2018-08-18T12:15:25.854Z,26.85
2018-08-18T12:16:25.897Z,26.92
2018-08-18T12:17:25.936Z,27.10
2018-08-18T12:18:25.990Z,27.13
2018-08-18T12:19:26.023Z,27.29
2018-08-18T12:20:26.128Z,27.49
2018-08-18T12:21:26.111Z,27.49
2018-08-18T12:22:26.156Z,27.63
2018-08-18T12:23:26.200Z,27.81
2018-08-18T12:24:26.280Z,27.97
2018-08-18T12:25:26.297Z,28.11
2018-08-18T12:26:26.334Z,28.06
2018-08-18T12:27:26.375Z,28.02
2018-08-18T12:28:26.416Z,27.82
2018-08-18T12:29:26.522Z,27.78
2018-08-18T12:30:26.504Z,27.44
2018-08-18T12:31:26.548Z,27.57
2018-08-18T12:32:26.601Z,27.39
2018-08-18T12:33:26.637Z,27.41
2018-08-18T12:34:26.682Z,27.29
2018-08-18T12:35:26.728Z,27.27
2018-08-18T12:36:26.811Z,27.29
2018-08-18T12:37:26.876Z,27.24
2018-08-18T12:38:26.856Z,27.19
2018-08-18T12:39:26.900Z,27.10
2018-08-18T12:40:26.947Z,27.06
2018-08-18T12:41:26.996Z,27.14
2018-08-18T12:42:27.040Z,27.14
2018-08-18T12:43:27.080Z,27.07
2018-08-18T12:44:27.121Z,27.17
2018-08-18T12:45:27.162Z,27.31
2018-08-18T12:46:27.210Z,27.32
2018-08-18T12:47:27.261Z,27.31
2018-08-18T12:48:27.352Z,27.25
2018-08-18T12:49:27.406Z,27.14
2018-08-18T12:50:27.383Z,26.99
2018-08-18T12:51:27.428Z,27.00
2018-08-18T12:52:27.473Z,27.03
2018-08-18T12:53:27.522Z,27.17